createdAt,value
2022-07-27T00:00:04.287Z,13.38
2022-07-27T00:02:40.287Z,13.37
2022-07-27T00:05:08.652Z,13.37
2022-07-27T00:07:36.875Z,13.36
2022-07-27T00:10:07.385Z,13.35
2022-07-27T00:12:35.477Z,13.34
2022-07-27T00:15:03.881Z,13.34
2022-07-27T00:17:33.266Z,13.31
2022-07-27T00:20:04.469Z,13.27
2022-07-27T00:22:36.433Z,13.26
2022-07-27T00:25:09.235Z,13.26
2022-07-27T00:27:39.651Z,13.24
2022-07-27T00:30:11.932Z,13.23
2022-07-27T00:32:41.129Z,13.25
2022-07-27T00:35:10.977Z,13.28
2022-07-27T00:37:40.569Z,13.29
2022-07-27T00:40:11.497Z,13.29
2022-07-27T00:42:39.775Z,13.28
2022-07-27T00:45:08.635Z,13.29
2022-07-27T00:47:37.180Z,13.27
2022-07-27T00:50:05.917Z,13.28
2022-07-27T00:52:34.397Z,13.27
2022-07-27T00:55:02.660Z,13.26
2022-07-27T00:57:32.728Z,13.25
2022-07-27T01:00:00.813Z,13.25
2022-07-27T01:02:29.027Z,13.25
2022-07-27T01:04:57.271Z,13.24
2022-07-27T01:07:27.555Z,13.25
2022-07-27T01:09:58.829Z,13.24
2022-07-27T01:12:28.674Z,13.26
2022-07-27T01:14:58.703Z,13.25
2022-07-27T01:17:27.283Z,13.24
2022-07-27T01:19:55.621Z,13.24
2022-07-27T01:22:25.178Z,13.23
2022-07-27T01:24:53.539Z,13.23
2022-07-27T01:27:21.856Z,13.24
2022-07-27T01:29:50.087Z,13.24
2022-07-27T01:32:18.354Z,13.24
2022-07-27T01:34:46.404Z,13.23
2022-07-27T01:37:14.624Z,13.23
2022-07-27T01:39:44.621Z,13.24
2022-07-27T01:42:12.860Z,13.24
2022-07-27T01:44:40.915Z,13.24
2022-07-27T01:47:14.497Z,13.23
2022-07-27T01:49:43.070Z,13.21
2022-07-27T01:52:11.390Z,13.22
2022-07-27T01:54:39.608Z,13.23
2022-07-27T01:57:09.310Z,13.22
2022-07-27T01:59:37.350Z,13.23
2022-07-27T02:02:06.171Z,13.24
2022-07-27T02:04:34.660Z,13.22
2022-07-27T02:07:02.838Z,13.21
2022-07-27T02:09:30.904Z,13.18
2022-07-27T02:12:16.595Z,13.16
2022-07-27T02:14:46.381Z,13.14
2022-07-27T02:17:14.683Z,13.10
2022-07-27T02:19:43.078Z,13.09
2022-07-27T02:22:11.166Z,13.08
2022-07-27T02:24:39.333Z,13.06
2022-07-27T02:27:10.420Z,13.04
2022-07-27T02:29:38.715Z,13.01
2022-07-27T02:32:10.223Z,13.01
2022-07-27T02:34:38.281Z,13.01
2022-07-27T02:37:06.427Z,13.01
2022-07-27T02:39:34.513Z,13.00
2022-07-27T02:42:03.247Z,13.01
2022-07-27T02:44:32.615Z,13.01
2022-07-27T02:47:03.311Z,13.01
2022-07-27T02:49:33.105Z,13.01
2022-07-27T02:52:01.467Z,13.00
2022-07-27T02:54:32.554Z,12.99
2022-07-27T02:57:02.789Z,12.96
2022-07-27T02:59:30.925Z,12.92
2022-07-27T03:01:59.170Z,12.89
2022-07-27T03:04:27.421Z,12.88
2022-07-27T03:06:57.138Z,12.86
2022-07-27T03:09:32.984Z,12.85
2022-07-27T03:12:01.724Z,12.82
2022-07-27T03:14:31.938Z,12.80
2022-07-27T03:17:00.016Z,12.80
2022-07-27T03:22:19.415Z,12.78
2022-07-27T03:24:47.761Z,12.75
2022-07-27T03:27:15.836Z,12.73
2022-07-27T03:29:44.006Z,12.72
2022-07-27T03:32:12.057Z,12.71
2022-07-27T03:34:40.448Z,12.73
2022-07-27T03:37:08.606Z,12.73
2022-07-27T03:39:38.279Z,12.73
2022-07-27T03:42:06.696Z,12.72
2022-07-27T03:44:34.811Z,12.72
2022-07-27T03:47:02.924Z,12.73
2022-07-27T03:49:31.050Z,12.74
2022-07-27T03:51:59.238Z,12.73
2022-07-27T03:54:27.860Z,12.72
2022-07-27T03:56:57.399Z,12.73
2022-07-27T03:59:27.476Z,12.74
2022-07-27T04:01:55.910Z,12.74
2022-07-27T04:04:24.245Z,12.75
2022-07-27T04:06:52.443Z,12.74
2022-07-27T04:09:20.537Z,12.74
2022-07-27T04:11:49.399Z,12.73
2022-07-27T04:14:21.250Z,12.71
2022-07-27T04:16:49.635Z,12.71
2022-07-27T04:19:19.281Z,12.71
2022-07-27T04:21:47.456Z,12.70
2022-07-27T04:24:15.722Z,12.70
2022-07-27T04:26:43.746Z,12.71
2022-07-27T04:29:13.876Z,12.71
2022-07-27T04:31:46.802Z,12.72
2022-07-27T04:34:15.299Z,12.73
2022-07-27T04:36:43.441Z,12.74
2022-07-27T04:39:12.080Z,12.74
2022-07-27T04:41:40.458Z,12.74
2022-07-27T04:44:08.626Z,12.74
2022-07-27T04:46:36.754Z,12.72
2022-07-27T04:49:07.086Z,12.71
2022-07-27T04:51:35.518Z,12.72
2022-07-27T04:54:03.725Z,12.70
2022-07-27T04:56:31.923Z,12.68
2022-07-27T04:59:00.090Z,12.68
2022-07-27T05:01:33.076Z,12.67
2022-07-27T05:04:04.277Z,12.66
2022-07-27T05:06:34.226Z,12.64
2022-07-27T05:09:02.368Z,12.65
2022-07-27T05:11:30.745Z,12.65
2022-07-27T05:13:58.891Z,12.66
2022-07-27T05:16:29.058Z,12.68
2022-07-27T05:18:57.630Z,12.70
2022-07-27T05:21:26.121Z,12.72
2022-07-27T05:23:55.878Z,12.74
2022-07-27T05:26:24.255Z,12.77
2022-07-27T05:28:52.408Z,12.79
2022-07-27T05:31:20.563Z,12.82
2022-07-27T05:33:52.277Z,12.86
2022-07-27T05:36:23.037Z,12.88
2022-07-27T05:38:51.099Z,12.92
2022-07-27T05:41:25.090Z,12.94
2022-07-27T05:43:54.617Z,12.96
2022-07-27T05:46:22.961Z,13.00
2022-07-27T05:48:51.648Z,13.01
2022-07-27T05:51:19.883Z,13.03
2022-07-27T05:53:48.009Z,13.07
2022-07-27T05:56:16.895Z,13.09
2022-07-27T05:58:46.635Z,13.12
2022-07-27T06:01:15.213Z,13.14
2022-07-27T06:03:43.482Z,13.15
2022-07-27T06:06:29.246Z,13.15
2022-07-27T06:08:57.573Z,13.18
2022-07-27T06:11:25.737Z,13.19
2022-07-27T06:13:56.254Z,13.22
2022-07-27T06:16:24.588Z,13.26
2022-07-27T06:18:52.863Z,13.29
2022-07-27T06:21:24.297Z,13.35
2022-07-27T06:23:52.615Z,13.39
2022-07-27T06:26:20.703Z,13.43
2022-07-27T06:28:49.207Z,13.48
2022-07-27T06:31:18.880Z,13.54
2022-07-27T06:33:48.226Z,13.59
2022-07-27T06:36:19.263Z,13.67
2022-07-27T06:38:47.498Z,13.74
2022-07-27T06:41:15.596Z,13.83
2022-07-27T06:43:43.852Z,13.91
2022-07-27T06:46:12.948Z,13.98
2022-07-27T06:48:43.047Z,14.05
2022-07-27T06:51:11.173Z,14.13
2022-07-27T06:53:39.334Z,14.21
2022-07-27T06:56:08.560Z,14.31
2022-07-27T06:58:37.823Z,14.47
2022-07-27T07:01:06.225Z,14.62
2022-07-27T07:03:34.413Z,14.80
2022-07-27T07:06:04.370Z,14.97
2022-07-27T07:08:32.671Z,15.14
2022-07-27T07:11:00.713Z,15.30
2022-07-27T07:13:28.864Z,15.41
2022-07-27T07:15:57.068Z,15.51
2022-07-27T07:18:25.275Z,15.60
2022-07-27T07:20:54.693Z,15.64
2022-07-27T07:23:24.271Z,15.68
2022-07-27T07:25:52.392Z,15.69
2022-07-27T07:28:22.321Z,15.71
2022-07-27T07:30:50.558Z,15.75
2022-07-27T07:33:18.721Z,15.77
2022-07-27T07:36:12.376Z,15.79
2022-07-27T07:38:36.569Z,15.82
2022-07-27T07:41:05.751Z,15.85
2022-07-27T07:43:35.744Z,15.90
2022-07-27T07:46:04.917Z,15.97
2022-07-27T07:48:33.279Z,16.04
2022-07-27T07:51:01.790Z,16.14
2022-07-27T07:53:30.411Z,16.24
2022-07-27T07:56:00.207Z,16.36
2022-07-27T07:58:28.599Z,16.49
2022-07-27T08:00:56.760Z,16.61
2022-07-27T08:03:25.122Z,16.72
2022-07-27T08:05:53.275Z,16.81
2022-07-27T08:08:21.478Z,16.90
2022-07-27T08:10:53.076Z,17.00
2022-07-27T08:13:22.946Z,17.10
2022-07-27T08:15:52.436Z,17.18
2022-07-27T08:18:21.298Z,17.30
2022-07-27T08:20:49.498Z,17.38
2022-07-27T08:23:17.527Z,17.49
2022-07-27T08:25:45.655Z,17.57
2022-07-27T08:28:14.043Z,17.50
2022-07-27T08:30:43.734Z,17.59
2022-07-27T08:33:12.378Z,17.65
2022-07-27T08:35:40.475Z,17.67
2022-07-27T08:38:09.586Z,17.75
2022-07-27T08:40:44.321Z,17.84
2022-07-27T08:43:20.138Z,17.90
2022-07-27T08:45:55.499Z,17.95
2022-07-27T08:48:24.185Z,18.07
2022-07-27T08:50:52.715Z,18.22
2022-07-27T08:53:21.118Z,18.38
2022-07-27T08:55:49.701Z,18.50
2022-07-27T08:58:17.741Z,18.67
2022-07-27T09:00:47.205Z,18.74
2022-07-27T09:03:20.825Z,18.86
2022-07-27T09:05:50.357Z,18.89
2022-07-27T09:08:22.262Z,18.98
2022-07-27T09:10:50.493Z,19.06
2022-07-27T09:13:20.070Z,19.04
2022-07-27T09:16:16.291Z,19.00
2022-07-27T09:18:39.483Z,19.11
2022-07-27T09:21:11.673Z,19.09
2022-07-27T09:23:40.175Z,19.17
2022-07-27T09:26:30.629Z,19.28
2022-07-27T09:29:01.562Z,19.30
2022-07-27T09:31:30.006Z,19.32
2022-07-27T09:34:00.802Z,19.39
2022-07-27T09:36:29.766Z,19.48
2022-07-27T09:39:02.500Z,19.51
2022-07-27T09:41:40.731Z,19.58
2022-07-27T09:44:31.134Z,19.59
2022-07-27T09:46:57.327Z,19.46
2022-07-27T09:49:32.260Z,19.55
2022-07-27T09:52:02.933Z,19.68
2022-07-27T09:54:45.345Z,19.83
2022-07-27T09:57:13.856Z,20.05
2022-07-27T09:59:42.068Z,20.17
2022-07-27T10:02:10.376Z,20.30
2022-07-27T10:04:40.622Z,20.45
2022-07-27T10:07:13.123Z,20.42
2022-07-27T10:09:42.340Z,20.31
2022-07-27T10:12:10.831Z,20.39
2022-07-27T10:14:39.066Z,20.27
2022-07-27T10:17:07.861Z,20.11
2022-07-27T10:19:40.605Z,20.28
2022-07-27T10:22:10.611Z,20.25
2022-07-27T10:24:38.701Z,20.27
2022-07-27T10:27:19.746Z,20.33
2022-07-27T10:29:48.641Z,20.28
2022-07-27T10:32:24.723Z,20.25
2022-07-27T10:34:53.296Z,20.23
2022-07-27T10:37:27.394Z,20.31
2022-07-27T10:40:16.213Z,20.37
2022-07-27T10:42:46.082Z,20.25
2022-07-27T10:45:17.370Z,20.27
2022-07-27T10:47:47.206Z,20.25
2022-07-27T10:50:23.973Z,20.22
2022-07-27T10:52:54.667Z,20.27
2022-07-27T10:55:44.614Z,20.29
2022-07-27T10:58:31.335Z,20.38
2022-07-27T11:01:00.365Z,20.37
2022-07-27T11:03:29.541Z,20.49
2022-07-27T11:06:04.814Z,20.52
2022-07-27T11:09:08.464Z,20.41
2022-07-27T11:11:39.761Z,20.51
2022-07-27T11:14:08.681Z,20.59
2022-07-27T11:16:57.493Z,20.72
2022-07-27T11:19:28.756Z,20.85
2022-07-27T11:21:57.863Z,21.04
2022-07-27T11:24:27.958Z,21.12
2022-07-27T11:26:56.292Z,21.22
2022-07-27T11:29:25.373Z,21.30
2022-07-27T11:31:57.140Z,21.42
2022-07-27T11:34:28.394Z,21.46
2022-07-27T11:36:58.495Z,21.51
2022-07-27T11:39:59.274Z,21.69
2022-07-27T11:42:18.559Z,21.74
2022-07-27T11:44:49.876Z,21.96
2022-07-27T11:47:19.915Z,22.08
2022-07-27T11:49:48.323Z,21.89
2022-07-27T11:52:18.746Z,22.08
2022-07-27T11:54:52.379Z,22.08
2022-07-27T11:57:20.996Z,22.00
2022-07-27T11:59:49.546Z,22.04
2022-07-27T12:02:20.290Z,21.91
2022-07-27T12:04:49.507Z,21.89
2022-07-27T12:07:20.144Z,21.69
2022-07-27T12:09:50.920Z,21.73
2022-07-27T12:12:20.307Z,21.82
2022-07-27T12:14:51.185Z,21.79
2022-07-27T12:17:28.088Z,21.63
2022-07-27T12:19:58.019Z,21.52
2022-07-27T12:22:27.728Z,21.28
2022-07-27T12:24:57.873Z,21.29
2022-07-27T12:27:27.818Z,21.14
2022-07-27T12:29:56.737Z,21.10
2022-07-27T12:32:25.087Z,21.18
2022-07-27T12:34:53.440Z,21.02
2022-07-27T12:37:32.543Z,20.97
2022-07-27T12:40:02.185Z,20.88
2022-07-27T12:42:34.471Z,20.87
2022-07-27T12:45:12.214Z,20.92
2022-07-27T12:47:43.221Z,20.86
2022-07-27T12:50:13.117Z,20.68
2022-07-27T12:52:44.122Z,20.68
2022-07-27T12:55:16.259Z,20.73
2022-07-27T12:57:55.679Z,20.75
2022-07-27T13:00:27.946Z,20.70
2022-07-27T13:03:01.293Z,20.79
2022-07-27T13:05:29.581Z,20.89
2022-07-27T13:08:00.147Z,20.98
2022-07-27T13:10:30.271Z,21.00
2022-07-27T13:12:58.381Z,20.99
2022-07-27T13:15:26.804Z,20.97
2022-07-27T13:17:54.903Z,21.09
2022-07-27T13:20:23.002Z,21.22
2022-07-27T13:22:53.388Z,21.31
2022-07-27T13:25:21.875Z,21.34
2022-07-27T13:27:52.414Z,21.38
2022-07-27T13:30:24.831Z,21.17
2022-07-27T13:32:54.456Z,21.22
2022-07-27T13:35:23.406Z,21.32
2022-07-27T13:37:51.470Z,21.24
2022-07-27T13:40:19.823Z,21.27
2022-07-27T13:42:47.891Z,21.35
2022-07-27T13:45:17.640Z,21.42
2022-07-27T13:47:46.067Z,21.40
2022-07-27T13:50:19.410Z,21.38
2022-07-27T13:52:48.591Z,21.36
2022-07-27T13:55:19.161Z,21.24
2022-07-27T13:57:48.164Z,21.30
2022-07-27T14:00:18.944Z,21.32
2022-07-27T14:02:47.354Z,21.32
2022-07-27T14:05:18.402Z,21.16
2022-07-27T14:07:48.811Z,21.11
2022-07-27T14:10:45.916Z,21.17
2022-07-27T14:13:15.219Z,21.28
2022-07-27T14:15:53.785Z,21.32
2022-07-27T14:18:24.393Z,21.50
2022-07-27T14:20:52.948Z,21.50
2022-07-27T14:23:21.176Z,21.65
2022-07-27T14:25:49.484Z,21.69
2022-07-27T14:28:17.606Z,21.65
2022-07-27T14:30:47.454Z,21.65
2022-07-27T14:33:15.805Z,21.49
2022-07-27T14:35:44.051Z,21.39
2022-07-27T14:38:12.445Z,21.33
2022-07-27T14:40:40.900Z,21.12
2022-07-27T14:43:09.778Z,21.14
2022-07-27T14:45:44.780Z,21.11
2022-07-27T14:48:23.142Z,21.13
2022-07-27T14:51:01.313Z,21.20
2022-07-27T14:53:29.571Z,21.32
2022-07-27T14:55:59.166Z,21.38
2022-07-27T14:58:30.498Z,21.49
2022-07-27T15:00:59.599Z,21.39
2022-07-27T15:03:29.209Z,21.43
2022-07-27T15:05:57.730Z,21.30
2022-07-27T15:08:26.267Z,21.34
2022-07-27T15:10:54.500Z,21.40
2022-07-27T15:13:22.595Z,21.31
2022-07-27T15:15:52.911Z,21.31
2022-07-27T15:18:21.958Z,21.44
2022-07-27T15:20:51.740Z,21.52
2022-07-27T15:23:19.854Z,21.63
2022-07-27T15:25:48.238Z,21.81
2022-07-27T15:28:16.783Z,21.97
2022-07-27T15:30:44.887Z,22.10
2022-07-27T15:33:13.098Z,22.26
2022-07-27T15:35:42.345Z,22.37
2022-07-27T15:38:11.968Z,22.33
2022-07-27T15:40:41.755Z,22.08
2022-07-27T15:43:12.030Z,22.35
2022-07-27T15:45:53.462Z,22.37
2022-07-27T15:48:22.091Z,22.44
2022-07-27T15:50:51.283Z,22.52
2022-07-27T15:53:21.461Z,22.58
2022-07-27T15:55:49.952Z,22.54
2022-07-27T15:58:19.614Z,22.42
2022-07-27T16:00:48.740Z,22.40
2022-07-27T16:03:17.766Z,22.41
2022-07-27T16:05:48.464Z,22.42
2022-07-27T16:08:18.691Z,22.30
2022-07-27T16:10:49.005Z,22.32
2022-07-27T16:13:17.610Z,22.33
2022-07-27T16:16:03.469Z,22.36
2022-07-27T16:18:36.785Z,22.26
2022-07-27T16:21:07.275Z,22.34
2022-07-27T16:23:35.558Z,22.33
2022-07-27T16:26:08.090Z,22.28
2022-07-27T16:28:46.866Z,22.23
2022-07-27T16:31:16.605Z,22.15
2022-07-27T16:33:46.990Z,22.13
2022-07-27T16:36:16.637Z,22.21
2022-07-27T16:38:50.374Z,22.18
2022-07-27T16:41:20.986Z,22.15
2022-07-27T16:43:49.512Z,22.00
2022-07-27T16:46:17.955Z,21.83
2022-07-27T16:48:46.186Z,21.90
2022-07-27T16:51:16.409Z,21.81
2022-07-27T16:53:45.873Z,21.77
2022-07-27T16:56:14.723Z,21.64
2022-07-27T16:58:44.719Z,21.56
2022-07-27T17:01:22.428Z,21.46
2022-07-27T17:03:55.609Z,21.29
2022-07-27T17:06:24.321Z,21.06
2022-07-27T17:08:52.667Z,20.93
2022-07-27T17:11:22.533Z,20.65
2022-07-27T17:13:59.385Z,20.59
2022-07-27T17:16:28.187Z,20.40
2022-07-27T17:18:56.363Z,20.30
2022-07-27T17:21:25.149Z,20.24
2022-07-27T17:23:53.971Z,20.09
2022-07-27T17:26:22.799Z,20.01
2022-07-27T17:28:54.955Z,19.91
2022-07-27T17:31:23.463Z,19.81
2022-07-27T17:33:52.605Z,19.72
2022-07-27T17:36:21.362Z,19.63
2022-07-27T17:38:51.124Z,19.52
2022-07-27T17:41:24.813Z,19.49
2022-07-27T17:43:55.754Z,19.38
2022-07-27T17:46:24.863Z,19.24
2022-07-27T17:48:54.059Z,19.16
2022-07-27T17:51:23.252Z,19.12
2022-07-27T17:53:51.799Z,19.04
2022-07-27T17:56:20.111Z,18.97
2022-07-27T17:58:48.638Z,18.95
2022-07-27T18:01:18.293Z,18.92
2022-07-27T18:04:06.591Z,18.87
2022-07-27T18:06:34.754Z,18.82
2022-07-27T18:09:02.924Z,18.77
2022-07-27T18:11:31.285Z,18.73
2022-07-27T18:13:59.525Z,18.65
2022-07-27T18:16:29.116Z,18.57
2022-07-27T18:18:57.598Z,18.53
2022-07-27T18:21:25.699Z,18.47
2022-07-27T18:23:53.759Z,18.47
2022-07-27T18:26:22.367Z,18.43
2022-07-27T18:28:52.793Z,18.37
2022-07-27T18:31:20.968Z,18.37
2022-07-27T18:33:52.736Z,18.34
2022-07-27T18:36:21.213Z,18.32
2022-07-27T18:38:50.134Z,18.26
2022-07-27T18:41:19.373Z,18.23
2022-07-27T18:43:51.277Z,18.17
2022-07-27T18:46:20.713Z,18.11
2022-07-27T18:48:50.624Z,18.10
2022-07-27T18:51:18.846Z,18.06
2022-07-27T18:53:47.579Z,18.00
2022-07-27T18:56:15.769Z,17.89
2022-07-27T18:58:44.114Z,17.84
2022-07-27T19:01:12.612Z,17.76
2022-07-27T19:03:43.482Z,17.67
2022-07-27T19:06:18.225Z,17.64
2022-07-27T19:08:47.235Z,17.61
2022-07-27T19:11:16.029Z,17.55
2022-07-27T19:13:45.936Z,17.54
2022-07-27T19:16:14.096Z,17.53
2022-07-27T19:18:42.295Z,17.52
2022-07-27T19:21:10.511Z,17.48
2022-07-27T19:23:40.256Z,17.45
2022-07-27T19:26:10.212Z,17.38
2022-07-27T19:28:39.344Z,17.37
2022-07-27T19:31:07.556Z,17.33
2022-07-27T19:33:52.344Z,17.27
2022-07-27T19:36:20.537Z,17.22
2022-07-27T19:38:50.013Z,17.19
2022-07-27T19:41:18.291Z,17.13
2022-07-27T19:43:46.362Z,17.05
2022-07-27T19:46:14.643Z,16.97
2022-07-27T19:48:42.904Z,16.88
2022-07-27T19:51:11.308Z,16.82
2022-07-27T19:53:41.141Z,16.78
2022-07-27T19:56:13.916Z,16.72
2022-07-27T19:58:42.063Z,16.68
2022-07-27T20:01:11.474Z,16.63
2022-07-27T20:03:53.337Z,16.59
2022-07-27T20:06:24.456Z,16.53
2022-07-27T20:08:55.971Z,16.49
2022-07-27T20:11:25.774Z,16.44
2022-07-27T20:13:54.075Z,16.37
2022-07-27T20:16:22.180Z,16.33
2022-07-27T20:18:50.292Z,16.27
2022-07-27T20:21:23.111Z,16.22
2022-07-27T20:23:52.349Z,16.19
2022-07-27T20:26:20.708Z,16.14
2022-07-27T20:28:53.226Z,16.08
2022-07-27T20:31:21.567Z,16.01
2022-07-27T20:33:50.401Z,15.94
2022-07-27T20:36:18.769Z,15.87
2022-07-27T20:38:46.942Z,15.84
2022-07-27T20:41:15.173Z,15.78
2022-07-27T20:43:43.323Z,15.69
2022-07-27T20:46:13.929Z,15.60
2022-07-27T20:48:44.163Z,15.52
2022-07-27T20:51:12.658Z,15.42
2022-07-27T20:53:40.913Z,15.33
2022-07-27T20:56:11.809Z,15.27
2022-07-27T20:58:45.830Z,15.20
2022-07-27T21:01:17.119Z,15.13
2022-07-27T21:03:45.289Z,15.07
2022-07-27T21:06:19.269Z,15.01
2022-07-27T21:08:51.786Z,14.94
2022-07-27T21:11:25.123Z,14.87
2022-07-27T21:13:59.555Z,14.79
2022-07-27T21:16:37.022Z,14.73
2022-07-27T21:19:11.182Z,14.66
2022-07-27T21:21:45.867Z,14.63
2022-07-27T21:24:19.154Z,14.59
2022-07-27T21:26:53.968Z,14.55
2022-07-27T21:29:29.985Z,14.51
2022-07-27T21:32:02.056Z,14.49
2022-07-27T21:34:30.439Z,14.45
2022-07-27T21:36:58.779Z,14.39
2022-07-27T21:39:28.991Z,14.35
2022-07-27T21:42:01.878Z,14.30
2022-07-27T21:44:31.584Z,14.27
2022-07-27T21:47:01.164Z,14.24
2022-07-27T21:49:34.592Z,14.21
2022-07-27T21:52:03.210Z,14.16
2022-07-27T21:54:31.365Z,14.11
2022-07-27T21:56:59.686Z,14.07
2022-07-27T21:59:27.858Z,14.03
2022-07-27T22:01:56.134Z,13.99
2022-07-27T22:04:25.706Z,13.95
2022-07-27T22:06:54.199Z,13.91
2022-07-27T22:09:22.529Z,13.84
2022-07-27T22:11:50.743Z,13.85
2022-07-27T22:14:20.071Z,13.84
2022-07-27T22:16:48.293Z,13.82
2022-07-27T22:19:16.747Z,13.81
2022-07-27T22:21:46.272Z,13.79
2022-07-27T22:24:20.779Z,13.77
2022-07-27T22:26:55.117Z,13.75
2022-07-27T22:29:29.745Z,13.73
2022-07-27T22:32:04.521Z,13.71
2022-07-27T22:34:39.478Z,13.72
2022-07-27T22:37:17.052Z,13.70
2022-07-27T22:39:51.355Z,13.70
2022-07-27T22:42:26.435Z,13.68
2022-07-27T22:45:01.991Z,13.66
2022-07-27T22:47:38.473Z,13.63
2022-07-27T22:50:18.147Z,13.60
2022-07-27T22:52:57.096Z,13.57
2022-07-27T22:55:30.887Z,13.54
2022-07-27T22:58:00.703Z,13.52
2022-07-27T23:00:30.165Z,13.50
2022-07-27T23:03:03.634Z,13.49
2022-07-27T23:05:38.927Z,13.47
2022-07-27T23:08:16.913Z,13.47
2022-07-27T23:10:50.301Z,13.47
2022-07-27T23:13:24.380Z,13.48
2022-07-27T23:15:59.066Z,13.47
2022-07-27T23:18:28.382Z,13.47
2022-07-27T23:21:03.140Z,13.46
2022-07-27T23:23:41.057Z,13.46
2022-07-27T23:26:30.643Z,13.42
2022-07-27T23:29:00.172Z,13.41
2022-07-27T23:31:28.389Z,13.40
2022-07-27T23:33:56.522Z,13.38
2022-07-27T23:36:24.860Z,13.35
2022-07-27T23:38:54.651Z,13.27
2022-07-27T23:41:27.447Z,13.25
2022-07-27T23:43:55.727Z,13.20
2022-07-27T23:46:23.921Z,13.17
2022-07-27T23:48:52.138Z,13.15
2022-07-27T23:51:20.398Z,13.12
2022-07-27T23:53:48.791Z,13.09
2022-07-27T23:56:18.436Z,13.07
2022-07-27T23:58:46.718Z,13.07
